Time;durP1;ratioP1;P1;durP2;ratioP2;P2;SDS_P1;SDS_P2;PMS_P1;PMS_P2;Temp;Humidity;BMP_temperature;BMP_pressure;BME280_temperature;BME280_humidity;BME280_pressure;Samples;Min_cycle;Max_cycle;Signal;HPM_P1;HPM_P2
2021/08/19 00:01:33;;;;;;;5.90;3.80;;;;;;;;;;6125491;23;20026;-70
2021/08/19 00:03:59;;;;;;;9.30;4.38;;;;;;;;;;6125264;23;20024;-69
2021/08/19 00:06:26;;;;;;;10.18;4.10;;;;;;;;;;6125674;23;20041;-69
2021/08/19 00:08:52;;;;;;;5.13;3.22;;;;;;;;;;6126198;23;20012;-69
2021/08/19 00:11:18;;;;;;;6.30;3.42;;;;;;;;;;6127707;23;20027;-69
2021/08/19 00:13:44;;;;;;;8.60;3.42;;;;;;;;;;6127540;23;20005;-69
2021/08/19 00:16:11;;;;;;;8.70;3.55;;;;;;;;;;6127055;23;20444;-69
2021/08/19 00:18:37;;;;;;;7.22;3.63;;;;;;;;;;6127408;23;20001;-69
2021/08/19 00:21:04;;;;;;;11.57;4.00;;;;;;;;;;6127784;23;19998;-69
2021/08/19 00:23:32;;;;;;;8.98;3.90;;;;;;;;;;6127676;23;20002;-69
2021/08/19 00:25:58;;;;;;;6.88;3.90;;;;;;;;;;6127804;23;20002;-69
2021/08/19 00:28:24;;;;;;;7.97;3.85;;;;;;;;;;6127587;23;20057;-69
2021/08/19 00:30:50;;;;;;;6.45;3.63;;;;;;;;;;6127232;23;20081;-68
2021/08/19 00:33:17;;;;;;;8.02;3.78;;;;;;;;;;6127528;23;20044;-69
2021/08/19 00:35:43;;;;;;;8.40;3.50;;;;;;;;;;6127085;23;19998;-69
2021/08/19 00:38:09;;;;;;;9.45;3.63;;;;;;;;;;6127276;23;20005;-69
2021/08/19 00:40:34;;;;;;;6.68;3.75;;;;;;;;;;6127612;23;20002;-69
2021/08/19 00:43:03;;;;;;;5.80;3.60;;;;;;;;;;6127704;23;20327;-69
2021/08/19 00:45:31;;;;;;;10.13;4.28;;;;;;;;;;6127109;23;20020;-69
2021/08/19 00:47:57;;;;;;;8.32;4.07;;;;;;;;;;6127475;23;20041;-69
2021/08/19 00:50:23;;;;;;;7.03;3.85;;;;;;;;;;6127081;23;20026;-69
2021/08/19 00:52:50;;;;;;;9.73;3.78;;;;;;;;;;6127478;23;20313;-69
2021/08/19 00:55:17;;;;;;;6.03;3.70;;;;;;;;;;6101166;23;20424;-69
2021/08/19 00:57:44;;;;;;;6.22;4.07;;;;;;;;;;6126965;23;20317;-69
2021/08/19 01:00:10;;;;;;;6.63;3.35;;;;;;;;;;6127036;23;20030;-70
2021/08/19 01:02:38;;;;;;;6.97;3.90;;;;;;;;;;6127466;23;20420;-70
2021/08/19 01:05:05;;;;;;;8.70;4.23;;;;;;;;;;6126375;23;20391;-69
2021/08/19 01:07:31;;;;;;;8.45;4.63;;;;;;;;;;6127086;23;20006;-69
2021/08/19 01:09:59;;;;;;;6.57;4.05;;;;;;;;;;6127244;23;20006;-69
2021/08/19 01:12:25;;;;;;;8.00;4.38;;;;;;;;;;6127006;23;20001;-69
2021/08/19 01:14:51;;;;;;;7.65;4.30;;;;;;;;;;6127248;23;20085;-69
2021/08/19 01:17:18;;;;;;;7.20;3.95;;;;;;;;;;6127078;23;20013;-69
2021/08/19 01:19:50;;;;;;;9.27;4.28;;;;;;;;;;6126876;23;20004;-69
2021/08/19 01:22:17;;;;;;;6.97;4.10;;;;;;;;;;6126914;23;20367;-70
2021/08/19 01:24:43;;;;;;;7.10;4.40;;;;;;;;;;6126873;23;20002;-69
2021/08/19 01:27:11;;;;;;;10.20;4.57;;;;;;;;;;6126909;23;20049;-69
2021/08/19 01:29:37;;;;;;;7.13;4.50;;;;;;;;;;6126848;23;20053;-70
2021/08/19 01:32:05;;;;;;;6.93;4.15;;;;;;;;;;6126928;23;20002;-69
2021/08/19 01:34:31;;;;;;;7.43;4.10;;;;;;;;;;6126731;23;20010;-69
2021/08/19 01:36:57;;;;;;;8.98;4.63;;;;;;;;;;6126884;23;20010;-69
2021/08/19 01:39:26;;;;;;;20.65;4.60;;;;;;;;;;6125967;23;20006;-69
2021/08/19 01:41:53;;;;;;;9.48;5.10;;;;;;;;;;6126911;23;20006;-69
2021/08/19 01:44:21;;;;;;;7.35;4.57;;;;;;;;;;6126657;23;20009;-69
2021/08/19 01:46:52;;;;;;;10.23;4.43;;;;;;;;;;6126958;23;20006;-69
2021/08/19 01:49:17;;;;;;;7.72;3.88;;;;;;;;;;6100827;23;20009;-70
2021/08/19 01:51:44;;;;;;;8.52;4.45;;;;;;;;;;6100664;23;20010;-70
2021/08/19 01:54:11;;;;;;;7.70;4.72;;;;;;;;;;6126390;23;19998;-69
2021/08/19 01:56:37;;;;;;;13.30;4.35;;;;;;;;;;6126378;23;20458;-69
2021/08/19 01:59:02;;;;;;;7.32;4.50;;;;;;;;;;6126926;23;19994;-69
2021/08/19 02:01:29;;;;;;;9.52;5.25;;;;;;;;;;6126579;23;20065;-69
2021/08/19 02:03:55;;;;;;;6.82;3.97;;;;;;;;;;6126512;23;20002;-69
2021/08/19 02:06:23;;;;;;;6.95;4.30;;;;;;;;;;6126343;23;20073;-69
2021/08/19 02:08:49;;;;;;;8.57;4.82;;;;;;;;;;6126342;23;19998;-69
2021/08/19 02:11:16;;;;;;;7.65;4.22;;;;;;;;;;6126342;23;20121;-69
2021/08/19 02:13:42;;;;;;;8.88;4.78;;;;;;;;;;6126434;23;20136;-69
2021/08/19 02:16:08;;;;;;;9.20;4.82;;;;;;;;;;6126521;23;20010;-69
2021/08/19 02:18:33;;;;;;;9.02;4.55;;;;;;;;;;6126578;23;20002;-70
2021/08/19 02:21:00;;;;;;;14.25;6.38;;;;;;;;;;6126584;23;20461;-69
2021/08/19 02:23:26;;;;;;;7.03;4.20;;;;;;;;;;6126740;23;20077;-69
2021/08/19 02:25:52;;;;;;;8.07;4.80;;;;;;;;;;6126381;23;19997;-69
2021/08/19 02:28:17;;;;;;;9.38;5.00;;;;;;;;;;6126262;23;20001;-69
2021/08/19 02:30:44;;;;;;;10.40;5.45;;;;;;;;;;6126192;23;20027;-70
2021/08/19 02:33:10;;;;;;;8.93;4.22;;;;;;;;;;6126015;23;20078;-69
2021/08/19 02:35:36;;;;;;;10.13;5.15;;;;;;;;;;6126001;23;19990;-69
2021/08/19 02:38:05;;;;;;;11.90;4.72;;;;;;;;;;6126113;23;20025;-69
2021/08/19 02:40:32;;;;;;;;;;;;;;;;;;6126498;23;20064;-69
2021/08/19 02:42:58;;;;;;;8.90;5.65;;;;;;;;;;6126425;23;19908;-69
2021/08/19 02:45:24;;;;;;;8.57;5.10;;;;;;;;;;6126104;23;20415;-69
2021/08/19 02:47:50;;;;;;;16.55;5.65;;;;;;;;;;6126143;23;19994;-69
2021/08/19 02:50:17;;;;;;;13.38;5.90;;;;;;;;;;6126020;23;20009;-69
2021/08/19 02:52:43;;;;;;;12.02;5.00;;;;;;;;;;6125940;23;20471;-68
2021/08/19 02:55:10;;;;;;;11.02;5.40;;;;;;;;;;6126140;23;20005;-69
2021/08/19 02:57:36;;;;;;;14.13;4.95;;;;;;;;;;6126164;23;20013;-69
2021/08/19 03:00:03;;;;;;;12.15;5.97;;;;;;;;;;6126063;23;19997;-68
2021/08/19 03:02:29;;;;;;;13.23;5.13;;;;;;;;;;6125925;23;20002;-69
2021/08/19 03:04:56;;;;;;;11.43;5.30;;;;;;;;;;6125810;23;20014;-69
2021/08/19 03:07:23;;;;;;;9.63;5.10;;;;;;;;;;6126093;23;20006;-68
2021/08/19 03:09:48;;;;;;;10.73;4.53;;;;;;;;;;6125960;23;20001;-69
2021/08/19 03:12:15;;;;;;;11.45;5.22;;;;;;;;;;6125854;23;20069;-69
2021/08/19 03:14:41;;;;;;;10.20;4.82;;;;;;;;;;6126084;23;20371;-69
2021/08/19 03:17:07;;;;;;;7.72;4.70;;;;;;;;;;6126418;23;20036;-70
2021/08/19 03:19:34;;;;;;;11.05;4.95;;;;;;;;;;6125913;23;20001;-69
2021/08/19 03:22:01;;;;;;;10.68;4.63;;;;;;;;;;6125918;23;20002;-69
2021/08/19 03:24:28;;;;;;;15.63;5.13;;;;;;;;;;6125743;23;20029;-68
2021/08/19 03:26:54;;;;;;;13.65;6.30;;;;;;;;;;6125961;23;19998;-69
2021/08/19 03:29:20;;;;;;;9.43;4.63;;;;;;;;;;6099942;23;20421;-69
2021/08/19 03:31:46;;;;;;;21.55;6.65;;;;;;;;;;6125834;23;20018;-68
2021/08/19 03:34:12;;;;;;;12.80;5.90;;;;;;;;;;6125961;23;20045;-69
2021/08/19 03:36:39;;;;;;;9.38;4.90;;;;;;;;;;6125603;23;20012;-69
2021/08/19 03:39:05;;;;;;;10.75;5.60;;;;;;;;;;6125788;23;20001;-69
2021/08/19 03:41:32;;;;;;;18.52;5.32;;;;;;;;;;6125950;23;19998;-69
2021/08/19 03:43:58;;;;;;;18.45;6.15;;;;;;;;;;6126286;23;20029;-70
2021/08/19 03:46:24;;;;;;;10.20;5.25;;;;;;;;;;6127570;23;20424;-70
2021/08/19 03:48:50;;;;;;;13.07;5.30;;;;;;;;;;6127785;23;19990;-69
2021/08/19 03:51:16;;;;;;;9.18;5.75;;;;;;;;;;6127782;23;20059;-68
2021/08/19 03:53:42;;;;;;;13.65;6.03;;;;;;;;;;6127640;23;19998;-69
2021/08/19 03:56:09;;;;;;;11.32;5.53;;;;;;;;;;6127773;23;20036;-69
2021/08/19 03:58:34;;;;;;;11.52;5.57;;;;;;;;;;6127859;23;20010;-69
2021/08/19 04:01:03;;;;;;;10.10;5.75;;;;;;;;;;6128071;23;20309;-70
2021/08/19 04:03:29;;;;;;;15.13;5.57;;;;;;;;;;6127677;23;20057;-70
2021/08/19 04:05:55;;;;;;;12.88;5.43;;;;;;;;;;6127209;23;20025;-69
2021/08/19 04:08:22;;;;;;;11.55;5.72;;;;;;;;;;6127413;23;20032;-69
2021/08/19 04:10:47;;;;;;;17.40;6.50;;;;;;;;;;6127795;23;20029;-69
2021/08/19 04:13:14;;;;;;;24.42;7.85;;;;;;;;;;6127643;23;20371;-69
2021/08/19 04:15:40;;;;;;;21.42;8.55;;;;;;;;;;6127288;23;19997;-69
2021/08/19 04:18:06;;;;;;;32.17;9.57;;;;;;;;;;6127464;23;20061;-69
2021/08/19 04:20:32;;;;;;;32.92;14.40;;;;;;;;;;6127305;23;20415;-69
2021/08/19 04:22:58;;;;;;;36.38;16.88;;;;;;;;;;6127850;23;20049;-69
2021/08/19 04:25:24;;;;;;;43.70;19.23;;;;;;;;;;6127458;23;20309;-69
2021/08/19 04:27:51;;;;;;;32.90;18.10;;;;;;;;;;6127460;23;20004;-69
2021/08/19 04:30:16;;;;;;;26.80;13.70;;;;;;;;;;6127259;23;20080;-69
2021/08/19 04:32:42;;;;;;;28.58;10.90;;;;;;;;;;6127638;23;20022;-69
2021/08/19 04:35:09;;;;;;;21.08;8.50;;;;;;;;;;6127536;23;20457;-69
2021/08/19 04:37:35;;;;;;;19.05;7.90;;;;;;;;;;6126864;23;20006;-69
2021/08/19 04:40:01;;;;;;;18.20;8.00;;;;;;;;;;6127145;23;20005;-69
2021/08/19 04:42:27;;;;;;;25.63;8.75;;;;;;;;;;6127270;23;20009;-69
2021/08/19 04:44:54;;;;;;;24.10;9.70;;;;;;;;;;6127304;23;20427;-69
2021/08/19 04:47:20;;;;;;;17.80;9.75;;;;;;;;;;6127547;23;20435;-69
2021/08/19 04:49:45;;;;;;;23.13;8.68;;;;;;;;;;6127009;23;20080;-70
2021/08/19 04:52:11;;;;;;;19.38;8.98;;;;;;;;;;6127189;23;20002;-70
2021/08/19 04:54:38;;;;;;;18.77;8.77;;;;;;;;;;6126980;23;20008;-70
2021/08/19 04:57:03;;;;;;;14.57;7.70;;;;;;;;;;6126539;23;20006;-70
2021/08/19 04:59:29;;;;;;;17.45;7.40;;;;;;;;;;6127173;23;20005;-70
2021/08/19 05:01:55;;;;;;;15.00;7.60;;;;;;;;;;6127166;23;20029;-70
2021/08/19 05:04:21;;;;;;;19.35;9.00;;;;;;;;;;6126883;23;20021;-70
2021/08/19 05:06:47;;;;;;;20.38;8.13;;;;;;;;;;6126756;23;20002;-70
2021/08/19 05:09:13;;;;;;;13.48;6.80;;;;;;;;;;6127066;23;20026;-70
2021/08/19 05:11:39;;;;;;;12.68;7.90;;;;;;;;;;6127281;23;20012;-70
2021/08/19 05:14:05;;;;;;;12.13;7.07;;;;;;;;;;6126952;23;20005;-70
2021/08/19 05:16:31;;;;;;;11.40;6.70;;;;;;;;;;6126990;23;20016;-70
2021/08/19 05:18:58;;;;;;;11.75;5.78;;;;;;;;;;6127091;23;20002;-70
2021/08/19 05:21:24;;;;;;;10.15;6.68;;;;;;;;;;6126726;23;20030;-70
2021/08/19 05:23:51;;;;;;;17.23;7.07;;;;;;;;;;6126935;23;20026;-70
2021/08/19 05:26:18;;;;;;;11.35;6.22;;;;;;;;;;6126800;23;20005;-70
2021/08/19 05:28:45;;;;;;;9.32;5.72;;;;;;;;;;6101726;23;20427;-70
2021/08/19 05:31:12;;;;;;;11.27;5.90;;;;;;;;;;6127259;23;20005;-70
2021/08/19 05:33:40;;;;;;;14.60;6.28;;;;;;;;;;6126733;23;20001;-70
2021/08/19 05:36:08;;;;;;;7.35;4.93;;;;;;;;;;6126380;23;20016;-70
2021/08/19 05:38:34;;;;;;;6.95;4.57;;;;;;;;;;6126992;23;20006;-71
2021/08/19 05:41:00;;;;;;;8.00;5.10;;;;;;;;;;6127171;23;20437;-70
2021/08/19 05:43:27;;;;;;;7.18;4.93;;;;;;;;;;6126702;23;20080;-70
2021/08/19 05:45:53;;;;;;;8.90;5.45;;;;;;;;;;6126501;23;20490;-70
2021/08/19 05:48:18;;;;;;;7.70;5.65;;;;;;;;;;6126440;23;19998;-70
2021/08/19 05:50:45;;;;;;;10.95;5.45;;;;;;;;;;6126530;23;19994;-70
2021/08/19 05:53:11;;;;;;;9.18;5.38;;;;;;;;;;6127062;23;20057;-71
2021/08/19 05:55:37;;;;;;;7.15;4.65;;;;;;;;;;6126412;23;20033;-70
2021/08/19 05:58:03;;;;;;;7.18;5.38;;;;;;;;;;6126460;23;20180;-71
2021/08/19 06:00:29;;;;;;;14.07;5.97;;;;;;;;;;6126708;23;20445;-70
2021/08/19 06:02:54;;;;;;;7.03;4.88;;;;;;;;;;6123552;23;20077;-70
2021/08/19 06:05:20;;;;;;;6.63;4.90;;;;;;;;;;6125039;23;20056;-69
2021/08/19 06:07:46;;;;;;;9.98;5.53;;;;;;;;;;6123265;23;20435;-70
2021/08/19 06:10:12;;;;;;;7.50;5.18;;;;;;;;;;6123467;23;20014;-69
2021/08/19 06:12:38;;;;;;;10.25;5.38;;;;;;;;;;6123668;23;20331;-70
2021/08/19 06:15:04;;;;;;;8.52;5.20;;;;;;;;;;6125701;23;20006;-68
2021/08/19 06:17:30;;;;;;;6.65;4.82;;;;;;;;;;6125939;23;20006;-70
2021/08/19 06:19:56;;;;;;;9.98;4.97;;;;;;;;;;6125187;23;20045;-70
2021/08/19 06:22:22;;;;;;;10.35;4.82;;;;;;;;;;6124961;23;20009;-69
2021/08/19 06:24:47;;;;;;;10.38;4.72;;;;;;;;;;6126023;23;20052;-69
2021/08/19 06:27:14;;;;;;;5.20;4.10;;;;;;;;;;6125941;23;20418;-70
2021/08/19 06:29:39;;;;;;;5.78;3.58;;;;;;;;;;6125609;23;20002;-71
2021/08/19 06:32:05;;;;;;;7.03;4.10;;;;;;;;;;6123845;23;20424;-70
2021/08/19 06:34:32;;;;;;;4.45;3.78;;;;;;;;;;6125037;23;20009;-70
2021/08/19 06:36:57;;;;;;;7.80;4.43;;;;;;;;;;6122588;23;20014;-68
2021/08/19 06:39:23;;;;;;;6.72;4.15;;;;;;;;;;6125651;23;20416;-68
2021/08/19 06:41:48;;;;;;;7.00;4.93;;;;;;;;;;6125830;23;19998;-64
2021/08/19 06:44:14;;;;;;;4.95;3.78;;;;;;;;;;6125132;23;20438;-64
2021/08/19 06:46:40;;;;;;;4.40;3.83;;;;;;;;;;6124950;23;20069;-64
2021/08/19 06:49:06;;;;;;;8.45;4.65;;;;;;;;;;6124375;23;19998;-65
2021/08/19 06:51:31;;;;;;;6.93;4.13;;;;;;;;;;6123930;23;20076;-66
2021/08/19 06:53:57;;;;;;;5.78;4.18;;;;;;;;;;6124574;23;20032;-65
2021/08/19 06:56:23;;;;;;;8.25;4.63;;;;;;;;;;6124952;23;20330;-65
2021/08/19 06:58:48;;;;;;;6.68;4.53;;;;;;;;;;6124693;23;20029;-66
2021/08/19 07:01:14;;;;;;;6.28;4.07;;;;;;;;;;6125083;23;20001;-64
2021/08/19 07:03:39;;;;;;;6.05;4.25;;;;;;;;;;6124913;23;20335;-68
2021/08/19 07:06:09;;;;;;;8.50;4.47;;;;;;;;;;6123856;23;20018;-68
2021/08/19 07:08:35;;;;;;;8.40;4.47;;;;;;;;;;6123839;23;20002;-69
2021/08/19 07:11:01;;;;;;;14.38;4.63;;;;;;;;;;6123908;23;20040;-68
2021/08/19 07:13:27;;;;;;;9.68;5.28;;;;;;;;;;6123798;23;20001;-67
2021/08/19 07:15:52;;;;;;;6.65;4.25;;;;;;;;;;6124794;23;20081;-67
2021/08/19 07:18:17;;;;;;;7.57;4.85;;;;;;;;;;6124587;23;20010;-71
2021/08/19 07:20:43;;;;;;;7.88;4.18;;;;;;;;;;6124783;23;20454;-67
2021/08/19 07:23:08;;;;;;;6.30;3.97;;;;;;;;;;6125298;23;20002;-65
2021/08/19 07:25:34;;;;;;;7.13;3.90;;;;;;;;;;6124957;23;20415;-65
2021/08/19 07:28:01;;;;;;;7.35;4.18;;;;;;;;;;6124531;23;20112;-66
2021/08/19 07:30:26;;;;;;;5.45;3.70;;;;;;;;;;6125329;23;20491;-65
2021/08/19 07:32:52;;;;;;;6.20;4.32;;;;;;;;;;6124513;23;20017;-66
2021/08/19 07:35:17;;;;;;;5.00;3.75;;;;;;;;;;6124747;23;20058;-65
2021/08/19 07:37:50;;;;;;;7.60;3.40;;;;;;;;;;6124549;23;20116;-65
2021/08/19 07:40:16;;;;;;;4.63;3.50;;;;;;;;;;6124882;23;19998;-66
2021/08/19 07:42:43;;;;;;;4.15;2.78;;;;;;;;;;6099065;23;20439;-65
2021/08/19 07:45:09;;;;;;;5.43;3.40;;;;;;;;;;6125033;23;19998;-65
2021/08/19 07:47:34;;;;;;;4.72;3.30;;;;;;;;;;6124614;23;20009;-65
2021/08/19 07:50:00;;;;;;;4.60;3.15;;;;;;;;;;6124347;23;20375;-65
2021/08/19 07:52:27;;;;;;;5.45;3.22;;;;;;;;;;6125303;23;20379;-65
2021/08/19 07:54:52;;;;;;;9.93;3.85;;;;;;;;;;6099006;23;20428;-68
2021/08/19 07:57:18;;;;;;;4.90;3.03;;;;;;;;;;6124700;23;20013;-68
2021/08/19 07:59:44;;;;;;;5.38;3.20;;;;;;;;;;6124859;23;20030;-68
2021/08/19 08:02:09;;;;;;;5.65;3.88;;;;;;;;;;6124612;23;20002;-74
2021/08/19 08:04:34;;;;;;;5.00;3.38;;;;;;;;;;6124290;23;20056;-67
2021/08/19 08:07:00;;;;;;;4.88;3.22;;;;;;;;;;6124738;23;20423;-67
2021/08/19 08:09:25;;;;;;;6.13;3.35;;;;;;;;;;6124812;23;20040;-67
2021/08/19 08:11:51;;;;;;;4.47;3.33;;;;;;;;;;6124726;23;20002;-67
2021/08/19 08:14:16;;;;;;;4.13;3.35;;;;;;;;;;6124736;23;20002;-66
2021/08/19 08:16:42;;;;;;;4.18;3.20;;;;;;;;;;6124525;23;20335;-70
2021/08/19 08:19:08;;;;;;;7.13;3.28;;;;;;;;;;6124573;23;20089;-66
2021/08/19 08:21:36;;;;;;;4.97;3.40;;;;;;;;;;6125124;23;20081;-67
2021/08/19 08:24:03;;;;;;;4.18;3.15;;;;;;;;;;6124571;23;20068;-66
2021/08/19 08:26:29;;;;;;;4.75;3.13;;;;;;;;;;6124616;23;20056;-65
2021/08/19 08:28:57;;;;;;;5.82;3.13;;;;;;;;;;6124320;23;20037;-66
2021/08/19 08:31:22;;;;;;;4.25;3.08;;;;;;;;;;6126537;23;20001;-66
2021/08/19 08:33:50;;;;;;;5.80;3.38;;;;;;;;;;6126535;23;20009;-70
2021/08/19 08:36:16;;;;;;;7.07;3.42;;;;;;;;;;6126190;23;20090;-67
2021/08/19 08:38:42;;;;;;;4.03;3.05;;;;;;;;;;6126296;23;19994;-68
2021/08/19 08:41:07;;;;;;;4.63;3.50;;;;;;;;;;6126607;23;20033;-68
2021/08/19 08:43:36;;;;;;;3.80;2.70;;;;;;;;;;6126902;23;20356;-67
2021/08/19 08:46:01;;;;;;;3.13;2.60;;;;;;;;;;6126337;23;20002;-67
2021/08/19 08:48:27;;;;;;;3.70;2.47;;;;;;;;;;6126180;23;20450;-68
2021/08/19 08:50:56;;;;;;;4.32;3.13;;;;;;;;;;6126331;23;19994;-67
2021/08/19 08:53:21;;;;;;;3.25;2.63;;;;;;;;;;6126658;23;20045;-68
2021/08/19 08:55:47;;;;;;;2.75;2.22;;;;;;;;;;6126733;23;20006;-68
2021/08/19 08:58:13;;;;;;;3.50;2.95;;;;;;;;;;6094082;23;20537;-72
2021/08/19 09:00:44;;;;;;;3.40;2.72;;;;;;;;;;6123731;23;20085;-71
2021/08/19 09:03:09;;;;;;;4.03;3.13;;;;;;;;;;6126231;23;20033;-72
2021/08/19 09:05:40;;;;;;;3.95;2.85;;;;;;;;;;6126306;23;20100;-70
2021/08/19 09:08:12;;;;;;;4.28;2.55;;;;;;;;;;6125869;23;19994;-72
2021/08/19 09:10:37;;;;;;;3.22;2.38;;;;;;;;;;6094780;23;20400;-71
2021/08/19 09:13:23;;;;;;;2.83;1.90;;;;;;;;;;6124875;23;20002;-72
2021/08/19 09:15:49;;;;;;;4.50;2.25;;;;;;;;;;6126290;23;19998;-71
2021/08/19 09:18:22;;;;;;;2.88;2.15;;;;;;;;;;6125774;23;20037;-72
2021/08/19 09:20:47;;;;;;;3.67;2.50;;;;;;;;;;6126234;23;20061;-72
2021/08/19 09:23:14;;;;;;;3.40;2.35;;;;;;;;;;6126168;23;19998;-72
2021/08/19 09:25:42;;;;;;;3.20;2.15;;;;;;;;;;6126256;23;20002;-68
2021/08/19 09:28:14;;;;;;;2.78;1.88;;;;;;;;;;6125519;23;20030;-74
2021/08/19 09:30:43;;;;;;;2.58;1.48;;;;;;;;;;6094174;23;20009;-66
2021/08/19 09:33:08;;;;;;;;;;;;;;;;;;6120765;23;20006;-66
2021/08/19 09:35:35;;;;;;;2.77;1.87;;;;;;;;;;6126393;23;19933;-67
2021/08/19 09:38:08;;;;;;;3.60;2.22;;;;;;;;;;6125327;23;20330;-66
2021/08/19 09:40:34;;;;;;;1.90;1.40;;;;;;;;;;6099674;23;20006;-66
2021/08/19 09:43:00;;;;;;;2.88;1.92;;;;;;;;;;6125507;23;20009;-66
2021/08/19 09:45:26;;;;;;;4.47;1.52;;;;;;;;;;6126048;23;20002;-66
2021/08/19 09:47:53;;;;;;;1.85;1.33;;;;;;;;;;6125654;23;20006;-66
2021/08/19 09:50:20;;;;;;;3.63;1.38;;;;;;;;;;6126010;23;20411;-66
2021/08/19 09:52:47;;;;;;;6.82;1.60;;;;;;;;;;6125835;23;20073;-66
2021/08/19 09:55:29;;;;;;;2.63;1.90;;;;;;;;;;6093689;23;20053;-66
2021/08/19 09:57:57;;;;;;;3.22;1.90;;;;;;;;;;6122009;23;20014;-66
2021/08/19 10:00:23;;;;;;;2.95;1.83;;;;;;;;;;6093971;23;20006;-66
2021/08/19 10:02:49;;;;;;;3.55;2.08;;;;;;;;;;6124414;23;20002;-65
2021/08/19 10:05:15;;;;;;;3.92;2.10;;;;;;;;;;6125376;23;20522;-65
2021/08/19 10:07:42;;;;;;;2.20;1.80;;;;;;;;;;6125371;23;20407;-65
2021/08/19 10:10:08;;;;;;;5.45;2.25;;;;;;;;;;6125275;23;20331;-66
2021/08/19 10:12:35;;;;;;;3.47;2.08;;;;;;;;;;6124317;23;19998;-65
2021/08/19 10:15:00;;;;;;;2.92;1.80;;;;;;;;;;6121842;23;20016;-63
2021/08/19 10:17:26;;;;;;;2.13;1.67;;;;;;;;;;6123834;23;20405;-67
2021/08/19 10:19:53;;;;;;;2.38;1.98;;;;;;;;;;6123629;23;20008;-69
2021/08/19 10:22:20;;;;;;;4.13;2.65;;;;;;;;;;6136677;23;20017;-68
2021/08/19 10:24:50;;;;;;;2.67;1.90;;;;;;;;;;6127935;23;20027;-69
2021/08/19 10:27:23;;;;;;;3.53;2.03;;;;;;;;;;6124664;23;20049;-68
2021/08/19 10:29:52;;;;;;;2.00;1.85;;;;;;;;;;6125589;23;20005;-69
2021/08/19 10:32:28;;;;;;;2.40;1.70;;;;;;;;;;6124833;23;19998;-69
2021/08/19 10:34:59;;;;;;;7.97;2.58;;;;;;;;;;6124958;23;20006;-68
2021/08/19 10:37:43;;;;;;;3.15;1.75;;;;;;;;;;6124327;23;20013;-69
2021/08/19 10:40:34;;;;;;;4.40;2.05;;;;;;;;;;6125573;23;20001;-68
2021/08/19 10:43:19;;;;;;;2.22;1.67;;;;;;;;;;6125638;23;20008;-69
2021/08/19 10:45:44;;;;;;;2.30;1.75;;;;;;;;;;6125164;23;20009;-68
2021/08/19 10:48:18;;;;;;;4.32;1.65;;;;;;;;;;6124494;23;20002;-69
2021/08/19 10:50:45;;;;;;;2.70;1.73;;;;;;;;;;6125133;23;20009;-69
2021/08/19 10:53:13;;;;;;;1.85;1.38;;;;;;;;;;6125192;23;20041;-69
2021/08/19 10:55:40;;;;;;;5.00;1.88;;;;;;;;;;6093294;23;20511;-68
2021/08/19 10:58:21;;;;;;;1.63;1.50;;;;;;;;;;6117503;23;20005;-68
2021/08/19 11:00:47;;;;;;;2.75;2.10;;;;;;;;;;6125432;23;20407;-69
2021/08/19 11:03:31;;;;;;;2.40;2.10;;;;;;;;;;6125297;23;19998;-70
2021/08/19 11:05:57;;;;;;;1.90;1.70;;;;;;;;;;6125222;23;20084;-70
2021/08/19 11:08:42;;;;;;;3.15;1.67;;;;;;;;;;6124686;23;20128;-70
2021/08/19 11:11:08;;;;;;;2.03;1.45;;;;;;;;;;6125129;23;20008;-68
2021/08/19 11:13:35;;;;;;;3.30;1.40;;;;;;;;;;6125158;23;20393;-72
2021/08/19 11:16:01;;;;;;;2.38;1.60;;;;;;;;;;6124988;23;20323;-71
2021/08/19 11:18:28;;;;;;;2.00;1.60;;;;;;;;;;6124369;23;20086;-73
2021/08/19 11:20:55;;;;;;;2.25;1.60;;;;;;;;;;6124978;23;19998;-69
2021/08/19 11:23:27;;;;;;;2.10;1.65;;;;;;;;;;6125118;23;19998;-68
2021/08/19 11:26:00;;;;;;;2.67;1.70;;;;;;;;;;6125446;23;20355;-69
2021/08/19 11:28:32;;;;;;;3.10;1.80;;;;;;;;;;6124775;23;20120;-68
2021/08/19 11:30:58;;;;;;;3.05;1.50;;;;;;;;;;6124552;23;20116;-69
2021/08/19 11:33:24;;;;;;;2.33;1.70;;;;;;;;;;6124865;23;20379;-69
2021/08/19 11:35:51;;;;;;;3.00;1.90;;;;;;;;;;6125868;23;20056;-69
2021/08/19 11:38:18;;;;;;;2.20;1.77;;;;;;;;;;6124350;23;20002;-69
2021/08/19 11:40:45;;;;;;;1.55;1.27;;;;;;;;;;6124902;23;20331;-69
2021/08/19 11:43:26;;;;;;;1.92;1.60;;;;;;;;;;6125114;23;19998;-69
2021/08/19 11:46:02;;;;;;;2.33;1.50;;;;;;;;;;6125037;23;20042;-69
2021/08/19 11:48:28;;;;;;;7.05;1.98;;;;;;;;;;6124788;23;20037;-68
2021/08/19 11:50:54;;;;;;;3.13;1.40;;;;;;;;;;6124720;23;20049;-66
2021/08/19 11:53:21;;;;;;;5.72;1.33;;;;;;;;;;6125025;23;20033;-73
2021/08/19 11:55:46;;;;;;;3.78;1.58;;;;;;;;;;6125363;23;20026;-73
2021/08/19 11:58:38;;;;;;;3.08;1.80;;;;;;;;;;6123992;23;20331;-74
2021/08/19 12:01:11;;;;;;;3.40;1.67;;;;;;;;;;6124887;23;20397;-74
2021/08/19 12:03:38;;;;;;;2.55;1.58;;;;;;;;;;6124894;23;20033;-75
2021/08/19 12:06:05;;;;;;;4.32;1.75;;;;;;;;;;6100360;23;20049;-75
2021/08/19 12:08:30;;;;;;;3.42;1.73;;;;;;;;;;6126951;23;19994;-75
2021/08/19 12:10:57;;;;;;;2.83;1.55;;;;;;;;;;6100949;23;20379;-73
2021/08/19 12:13:23;;;;;;;4.05;1.60;;;;;;;;;;6127362;23;20016;-73
2021/08/19 12:15:49;;;;;;;3.72;1.40;;;;;;;;;;6126842;23;20431;-70
2021/08/19 12:18:19;;;;;;;2.92;1.50;;;;;;;;;;6126448;23;20006;-70
2021/08/19 12:20:44;;;;;;;2.05;1.58;;;;;;;;;;6101526;23;20347;-73
2021/08/19 12:23:17;;;;;;;3.30;1.13;;;;;;;;;;6126553;23;19998;-68
2021/08/19 12:25:42;;;;;;;1.65;1.20;;;;;;;;;;6126511;23;19998;-71
2021/08/19 12:28:09;;;;;;;5.05;1.55;;;;;;;;;;6126167;23;20005;-68
2021/08/19 12:30:53;;;;;;;1.55;1.30;;;;;;;;;;6126905;23;20004;-69
2021/08/19 12:33:27;;;;;;;2.15;1.30;;;;;;;;;;6127053;23;20359;-68
2021/08/19 12:36:06;;;;;;;1.52;1.33;;;;;;;;;;6100720;23;20005;-69
2021/08/19 12:38:32;;;;;;;3.22;1.90;;;;;;;;;;6126696;23;20044;-68
2021/08/19 12:41:09;;;;;;;1.48;1.05;;;;;;;;;;6126530;23;19994;-70
2021/08/19 12:43:34;;;;;;;2.03;1.30;;;;;;;;;;6126983;23;20080;-68
2021/08/19 12:46:04;;;;;;;2.95;1.20;;;;;;;;;;6126263;23;20363;-69
2021/08/19 12:48:31;;;;;;;1.55;1.30;;;;;;;;;;6126543;23;20434;-70
2021/08/19 12:51:16;;;;;;;3.88;1.10;;;;;;;;;;6126126;23;20439;-68
2021/08/19 12:54:01;;;;;;;1.40;0.95;;;;;;;;;;6101237;23;20080;-68
2021/08/19 12:56:26;;;;;;;1.75;1.20;;;;;;;;;;6100174;23;20026;-68
2021/08/19 12:58:53;;;;;;;1.30;1.10;;;;;;;;;;6126264;23;20025;-71
2021/08/19 13:01:18;;;;;;;1.52;1.20;;;;;;;;;;6125972;23;19998;-68
2021/08/19 13:03:44;;;;;;;1.27;1.10;;;;;;;;;;6099884;23;20012;-68
2021/08/19 13:06:09;;;;;;;3.13;1.63;;;;;;;;;;6126372;23;20041;-68
2021/08/19 13:08:34;;;;;;;3.63;1.25;;;;;;;;;;6126523;23;20002;-67
2021/08/19 13:11:00;;;;;;;7.18;1.60;;;;;;;;;;6126150;23;20005;-68
2021/08/19 13:13:26;;;;;;;2.13;1.40;;;;;;;;;;6126097;23;20002;-67
2021/08/19 13:15:52;;;;;;;1.87;1.30;;;;;;;;;;6124985;23;20340;-67
2021/08/19 13:18:18;;;;;;;1.75;1.40;;;;;;;;;;6124965;23;20009;-66
2021/08/19 13:20:43;;;;;;;2.15;1.38;;;;;;;;;;6125411;23;20331;-66
2021/08/19 13:23:09;;;;;;;3.15;0.90;;;;;;;;;;6125587;23;20045;-66
2021/08/19 13:25:35;;;;;;;2.45;1.30;;;;;;;;;;6126072;23;19998;-67
2021/08/19 13:28:00;;;;;;;1.83;1.25;;;;;;;;;;6125652;23;20415;-71
2021/08/19 13:30:28;;;;;;;3.05;1.40;;;;;;;;;;6125761;23;20133;-71
2021/08/19 13:32:54;;;;;;;3.17;1.17;;;;;;;;;;6125547;23;20037;-68
2021/08/19 13:35:19;;;;;;;5.55;1.58;;;;;;;;;;6125191;23;19998;-70
2021/08/19 13:37:45;;;;;;;2.22;1.40;;;;;;;;;;6125546;23;20012;-68
2021/08/19 13:40:11;;;;;;;1.70;1.42;;;;;;;;;;6126039;23;20345;-67
2021/08/19 13:42:37;;;;;;;1.73;1.30;;;;;;;;;;6124507;23;19998;-69
2021/08/19 13:45:02;;;;;;;4.55;1.52;;;;;;;;;;6125634;23;20002;-69
2021/08/19 13:47:28;;;;;;;2.50;1.50;;;;;;;;;;6125521;23;20009;-69
2021/08/19 13:49:54;;;;;;;2.95;1.58;;;;;;;;;;6125796;23;19998;-69
2021/08/19 13:52:19;;;;;;;3.75;1.48;;;;;;;;;;6125747;23;20443;-68
2021/08/19 13:54:45;;;;;;;2.70;1.70;;;;;;;;;;6125903;23;20041;-69
2021/08/19 13:57:10;;;;;;;1.48;1.20;;;;;;;;;;6125929;23;20340;-69
2021/08/19 13:59:36;;;;;;;2.28;1.50;;;;;;;;;;6125830;23;19998;-69
2021/08/19 14:02:03;;;;;;;2.00;1.80;;;;;;;;;;6098886;23;20585;-70
2021/08/19 14:04:28;;;;;;;3.08;1.48;;;;;;;;;;6093590;23;20018;-71
2021/08/19 14:06:54;;;;;;;2.10;1.52;;;;;;;;;;6096826;23;20438;-70
2021/08/19 14:09:20;;;;;;;2.28;1.50;;;;;;;;;;6097047;23;20003;-70
2021/08/19 14:11:46;;;;;;;2.95;1.42;;;;;;;;;;6097140;23;20384;-69
2021/08/19 14:14:12;;;;;;;1.65;1.33;;;;;;;;;;6096476;23;20033;-69
2021/08/19 14:16:38;;;;;;;3.60;2.03;;;;;;;;;;6096525;23;20324;-70
2021/08/19 14:19:05;;;;;;;2.03;1.50;;;;;;;;;;6097120;23;20006;-70
2021/08/19 14:21:33;;;;;;;1.42;1.30;;;;;;;;;;6096872;23;19998;-70
2021/08/19 14:23:59;;;;;;;1.55;1.10;;;;;;;;;;6096767;23;19998;-70
2021/08/19 14:26:24;;;;;;;1.50;1.35;;;;;;;;;;6097107;23;20002;-69
2021/08/19 14:28:50;;;;;;;2.25;1.55;;;;;;;;;;6097060;23;20010;-70
2021/08/19 14:31:17;;;;;;;1.50;1.30;;;;;;;;;;6096740;23;20006;-71
2021/08/19 14:33:44;;;;;;;1.85;1.40;;;;;;;;;;6095845;23;20002;-69
2021/08/19 14:36:10;;;;;;;2.03;1.40;;;;;;;;;;6095375;23;19998;-67
2021/08/19 14:38:37;;;;;;;4.78;1.80;;;;;;;;;;6096021;23;20450;-66
2021/08/19 14:41:02;;;;;;;1.63;1.42;;;;;;;;;;6098183;23;20010;-66